sensor_id;sensor_type;location;lat;lon;timestamp;P1;durP1;ratioP1;P2;durP2;ratioP2
11211;SDS011;5663;50.864;12.096;2024-01-15T00:00:07;12.60;;;7.80;;
11211;SDS011;5663;50.864;12.096;2024-01-15T00:02:54;10.67;;;7.10;;
11211;SDS011;5663;50.864;12.096;2024-01-15T00:05:24;13.70;;;7.60;;
11211;SDS011;5663;50.864;12.096;2024-01-15T00:07:55;15.23;;;8.37;;
11211;SDS011;5663;50.864;12.096;2024-01-15T00:10:23;11.80;;;7.17;;
11211;SDS011;5663;50.864;12.096;2024-01-15T00:12:52;10.87;;;7.23;;
11211;SDS011;5663;50.864;12.096;2024-01-15T00:15:20;14.93;;;8.10;;
11211;SDS011;5663;50.864;12.096;2024-01-15T00:17:51;13.63;;;7.40;;
11211;SDS011;5663;50.864;12.096;2024-01-15T00:20:18;12.97;;;7.87;;
11211;SDS011;5663;50.864;12.096;2024-01-15T00:22:49;15.80;;;8.43;;
11211;SDS011;5663;50.864;12.096;2024-01-15T00:25:21;15.07;;;8.33;;
11211;SDS011;5663;50.864;12.096;2024-01-15T00:27:55;13.10;;;8.03;;
11211;SDS011;5663;50.864;12.096;2024-01-15T00:30:23;13.80;;;8.53;;
11211;SDS011;5663;50.864;12.096;2024-01-15T00:32:51;12.47;;;7.63;;
11211;SDS011;5663;50.864;12.096;2024-01-15T00:35:30;12.50;;;7.90;;
11211;SDS011;5663;50.864;12.096;2024-01-15T00:38:00;14.53;;;7.73;;
11211;SDS011;5663;50.864;12.096;2024-01-15T00:40:27;17.97;;;8.00;;
11211;SDS011;5663;50.864;12.096;2024-01-15T00:43:14;13.80;;;8.50;;
11211;SDS011;5663;50.864;12.096;2024-01-15T00:45:49;14.40;;;8.27;;
11211;SDS011;5663;50.864;12.096;2024-01-15T00:48:16;14.97;;;8.33;;
11211;SDS011;5663;50.864;12.096;2024-01-15T00:50:44;12.03;;;7.33;;
11211;SDS011;5663;50.864;12.096;2024-01-15T00:53:13;11.60;;;7.53;;
11211;SDS011;5663;50.864;12.096;2024-01-15T00:55:41;13.77;;;8.30;;
11211;SDS011;5663;50.864;12.096;2024-01-15T00:58:10;14.37;;;8.80;;
11211;SDS011;5663;50.864;12.096;2024-01-15T01:00:38;12.87;;;7.57;;
11211;SDS011;5663;50.864;12.096;2024-01-15T01:03:05;14.50;;;7.67;;
11211;SDS011;5663;50.864;12.096;2024-01-15T01:05:33;11.73;;;8.10;;
11211;SDS011;5663;50.864;12.096;2024-01-15T01:08:01;12.53;;;7.80;;
11211;SDS011;5663;50.864;12.096;2024-01-15T01:13:27;14.03;;;7.70;;
11211;SDS011;5663;50.864;12.096;2024-01-15T01:15:58;12.57;;;7.73;;
11211;SDS011;5663;50.864;12.096;2024-01-15T01:18:26;13.60;;;7.93;;
11211;SDS011;5663;50.864;12.096;2024-01-15T01:20:54;14.07;;;8.33;;
11211;SDS011;5663;50.864;12.096;2024-01-15T01:23:21;14.47;;;8.00;;
11211;SDS011;5663;50.864;12.096;2024-01-15T01:25:49;15.63;;;8.70;;
11211;SDS011;5663;50.864;12.096;2024-01-15T01:28:17;14.57;;;7.87;;
11211;SDS011;5663;50.864;12.096;2024-01-15T01:30:46;12.73;;;7.67;;
11211;SDS011;5663;50.864;12.096;2024-01-15T01:33:14;12.30;;;7.47;;
11211;SDS011;5663;50.864;12.096;2024-01-15T01:35:41;13.40;;;7.93;;
11211;SDS011;5663;50.864;12.096;2024-01-15T01:38:10;14.07;;;7.80;;
11211;SDS011;5663;50.864;12.096;2024-01-15T01:40:39;12.20;;;8.10;;
11211;SDS011;5663;50.864;12.096;2024-01-15T01:43:08;14.93;;;8.40;;
11211;SDS011;5663;50.864;12.096;2024-01-15T01:45:36;14.13;;;8.40;;
11211;SDS011;5663;50.864;12.096;2024-01-15T01:48:06;15.33;;;8.23;;
11211;SDS011;5663;50.864;12.096;2024-01-15T01:50:34;13.07;;;7.70;;
11211;SDS011;5663;50.864;12.096;2024-01-15T01:53:02;13.23;;;8.17;;
11211;SDS011;5663;50.864;12.096;2024-01-15T01:55:31;14.63;;;8.33;;
11211;SDS011;5663;50.864;12.096;2024-01-15T01:58:00;13.27;;;7.67;;
11211;SDS011;5663;50.864;12.096;2024-01-15T02:00:29;13.87;;;7.77;;
11211;SDS011;5663;50.864;12.096;2024-01-15T02:02:58;13.07;;;7.90;;
11211;SDS011;5663;50.864;12.096;2024-01-15T02:05:28;15.17;;;8.80;;
11211;SDS011;5663;50.864;12.096;2024-01-15T02:07:55;13.90;;;8.37;;
11211;SDS011;5663;50.864;12.096;2024-01-15T02:10:24;15.23;;;8.97;;
11211;SDS011;5663;50.864;12.096;2024-01-15T02:12:52;16.23;;;9.73;;
11211;SDS011;5663;50.864;12.096;2024-01-15T02:15:19;17.00;;;9.23;;
11211;SDS011;5663;50.864;12.096;2024-01-15T02:20:35;16.93;;;9.23;;
11211;SDS011;5663;50.864;12.096;2024-01-15T02:23:09;14.37;;;9.27;;
11211;SDS011;5663;50.864;12.096;2024-01-15T02:25:39;16.50;;;9.57;;
11211;SDS011;5663;50.864;12.096;2024-01-15T02:28:07;14.60;;;9.13;;
11211;SDS011;5663;50.864;12.096;2024-01-15T02:30:37;15.00;;;8.90;;
11211;SDS011;5663;50.864;12.096;2024-01-15T02:33:11;16.13;;;9.37;;
11211;SDS011;5663;50.864;12.096;2024-01-15T02:35:38;17.70;;;9.90;;
11211;SDS011;5663;50.864;12.096;2024-01-15T02:38:09;15.97;;;9.23;;
11211;SDS011;5663;50.864;12.096;2024-01-15T02:40:36;18.77;;;10.10;;
11211;SDS011;5663;50.864;12.096;2024-01-15T02:43:04;15.03;;;9.27;;
11211;SDS011;5663;50.864;12.096;2024-01-15T02:45:32;19.20;;;9.47;;
11211;SDS011;5663;50.864;12.096;2024-01-15T02:47:59;16.07;;;9.07;;
11211;SDS011;5663;50.864;12.096;2024-01-15T02:50:26;14.70;;;9.20;;
11211;SDS011;5663;50.864;12.096;2024-01-15T02:52:54;15.17;;;9.00;;
11211;SDS011;5663;50.864;12.096;2024-01-15T02:55:23;15.10;;;9.07;;
11211;SDS011;5663;50.864;12.096;2024-01-15T02:57:51;15.43;;;9.37;;
11211;SDS011;5663;50.864;12.096;2024-01-15T03:00:19;18.47;;;9.50;;
11211;SDS011;5663;50.864;12.096;2024-01-15T03:02:47;16.57;;;9.53;;
11211;SDS011;5663;50.864;12.096;2024-01-15T03:05:16;15.23;;;8.87;;
11211;SDS011;5663;50.864;12.096;2024-01-15T03:07:44;13.33;;;8.20;;
11211;SDS011;5663;50.864;12.096;2024-01-15T03:10:11;14.93;;;8.77;;
11211;SDS011;5663;50.864;12.096;2024-01-15T03:12:41;17.87;;;9.63;;
11211;SDS011;5663;50.864;12.096;2024-01-15T03:15:08;16.73;;;9.13;;
11211;SDS011;5663;50.864;12.096;2024-01-15T03:17:36;16.17;;;9.40;;
11211;SDS011;5663;50.864;12.096;2024-01-15T03:20:03;15.73;;;9.20;;
11211;SDS011;5663;50.864;12.096;2024-01-15T03:22:31;17.57;;;9.47;;
11211;SDS011;5663;50.864;12.096;2024-01-15T03:25:02;15.00;;;8.53;;
11211;SDS011;5663;50.864;12.096;2024-01-15T03:27:30;17.27;;;9.33;;
11211;SDS011;5663;50.864;12.096;2024-01-15T03:29:59;17.23;;;9.23;;
11211;SDS011;5663;50.864;12.096;2024-01-15T03:32:30;14.90;;;8.50;;
11211;SDS011;5663;50.864;12.096;2024-01-15T03:34:58;14.83;;;8.73;;
11211;SDS011;5663;50.864;12.096;2024-01-15T03:37:25;16.10;;;8.90;;
11211;SDS011;5663;50.864;12.096;2024-01-15T03:39:53;15.37;;;9.07;;
11211;SDS011;5663;50.864;12.096;2024-01-15T03:42:20;16.90;;;9.20;;
11211;SDS011;5663;50.864;12.096;2024-01-15T03:44:48;16.67;;;9.23;;
11211;SDS011;5663;50.864;12.096;2024-01-15T03:47:17;16.17;;;8.93;;
11211;SDS011;5663;50.864;12.096;2024-01-15T03:49:46;18.27;;;9.07;;
11211;SDS011;5663;50.864;12.096;2024-01-15T03:52:14;16.50;;;9.10;;
11211;SDS011;5663;50.864;12.096;2024-01-15T03:54:42;16.97;;;9.23;;
11211;SDS011;5663;50.864;12.096;2024-01-15T03:57:10;16.37;;;9.13;;
11211;SDS011;5663;50.864;12.096;2024-01-15T03:59:40;15.23;;;8.53;;
11211;SDS011;5663;50.864;12.096;2024-01-15T04:02:07;15.73;;;8.43;;
11211;SDS011;5663;50.864;12.096;2024-01-15T04:04:36;15.53;;;8.40;;
11211;SDS011;5663;50.864;12.096;2024-01-15T04:07:07;15.90;;;8.73;;
11211;SDS011;5663;50.864;12.096;2024-01-15T04:09:38;18.63;;;9.30;;
11211;SDS011;5663;50.864;12.096;2024-01-15T04:12:06;16.47;;;8.83;;
11211;SDS011;5663;50.864;12.096;2024-01-15T04:14:43;15.10;;;8.87;;
11211;SDS011;5663;50.864;12.096;2024-01-15T04:17:10;16.47;;;8.93;;
11211;SDS011;5663;50.864;12.096;2024-01-15T04:19:39;15.73;;;8.33;;
11211;SDS011;5663;50.864;12.096;2024-01-15T04:22:10;15.80;;;8.70;;
11211;SDS011;5663;50.864;12.096;2024-01-15T04:24:38;15.77;;;8.33;;
11211;SDS011;5663;50.864;12.096;2024-01-15T04:27:04;16.60;;;9.10;;
11211;SDS011;5663;50.864;12.096;2024-01-15T04:29:32;15.83;;;8.57;;
11211;SDS011;5663;50.864;12.096;2024-01-15T04:32:02;16.57;;;8.80;;
11211;SDS011;5663;50.864;12.096;2024-01-15T04:34:30;16.77;;;9.10;;
11211;SDS011;5663;50.864;12.096;2024-01-15T04:37:06;16.00;;;8.20;;
11211;SDS011;5663;50.864;12.096;2024-01-15T04:39:34;15.70;;;9.17;;
11211;SDS011;5663;50.864;12.096;2024-01-15T04:42:01;15.93;;;9.30;;
11211;SDS011;5663;50.864;12.096;2024-01-15T04:44:29;16.37;;;8.80;;
11211;SDS011;5663;50.864;12.096;2024-01-15T04:46:57;16.63;;;9.53;;
11211;SDS011;5663;50.864;12.096;2024-01-15T04:49:25;15.07;;;8.20;;
11211;SDS011;5663;50.864;12.096;2024-01-15T04:51:53;14.37;;;8.40;;
11211;SDS011;5663;50.864;12.096;2024-01-15T04:54:25;13.27;;;7.67;;
11211;SDS011;5663;50.864;12.096;2024-01-15T04:56:55;13.27;;;7.83;;
11211;SDS011;5663;50.864;12.096;2024-01-15T04:59:24;15.70;;;8.10;;
11211;SDS011;5663;50.864;12.096;2024-01-15T05:01:56;13.63;;;7.80;;
11211;SDS011;5663;50.864;12.096;2024-01-15T05:04:24;12.93;;;7.73;;
11211;SDS011;5663;50.864;12.096;2024-01-15T05:06:54;11.90;;;6.97;;
11211;SDS011;5663;50.864;12.096;2024-01-15T05:09:22;11.80;;;7.00;;
11211;SDS011;5663;50.864;12.096;2024-01-15T05:11:54;12.70;;;7.50;;
11211;SDS011;5663;50.864;12.096;2024-01-15T05:14:22;13.93;;;7.63;;
11211;SDS011;5663;50.864;12.096;2024-01-15T05:16:53;12.03;;;7.27;;
11211;SDS011;5663;50.864;12.096;2024-01-15T05:19:24;12.63;;;7.07;;
11211;SDS011;5663;50.864;12.096;2024-01-15T05:22:05;11.00;;;6.90;;
11211;SDS011;5663;50.864;12.096;2024-01-15T05:24:33;12.70;;;7.03;;
11211;SDS011;5663;50.864;12.096;2024-01-15T05:27:21;11.63;;;6.63;;
11211;SDS011;5663;50.864;12.096;2024-01-15T05:29:49;10.47;;;6.17;;
11211;SDS011;5663;50.864;12.096;2024-01-15T05:32:19;11.53;;;5.97;;
11211;SDS011;5663;50.864;12.096;2024-01-15T05:34:48;11.00;;;6.70;;
11211;SDS011;5663;50.864;12.096;2024-01-15T05:37:18;9.80;;;6.20;;
11211;SDS011;5663;50.864;12.096;2024-01-15T05:39:46;9.90;;;5.90;;
11211;SDS011;5663;50.864;12.096;2024-01-15T05:42:16;11.00;;;6.20;;
11211;SDS011;5663;50.864;12.096;2024-01-15T05:44:45;10.70;;;5.53;;
11211;SDS011;5663;50.864;12.096;2024-01-15T05:47:15;11.33;;;5.90;;
11211;SDS011;5663;50.864;12.096;2024-01-15T05:49:43;10.07;;;6.17;;
11211;SDS011;5663;50.864;12.096;2024-01-15T05:59:20;9.43;;;5.90;;
11211;SDS011;5663;50.864;12.096;2024-01-15T06:01:55;8.53;;;5.30;;
11211;SDS011;5663;50.864;12.096;2024-01-15T06:04:23;9.40;;;5.80;;
11211;SDS011;5663;50.864;12.096;2024-01-15T06:07:03;11.50;;;6.13;;
11211;SDS011;5663;50.864;12.096;2024-01-15T06:09:59;8.63;;;5.60;;
11211;SDS011;5663;50.864;12.096;2024-01-15T06:12:29;9.93;;;5.83;;
11211;SDS011;5663;50.864;12.096;2024-01-15T06:15:14;9.47;;;5.50;;
11211;SDS011;5663;50.864;12.096;2024-01-15T06:17:45;9.80;;;5.43;;
11211;SDS011;5663;50.864;12.096;2024-01-15T06:20:16;9.87;;;5.70;;
11211;SDS011;5663;50.864;12.096;2024-01-15T06:22:50;8.97;;;5.70;;
11211;SDS011;5663;50.864;12.096;2024-01-15T06:25:35;9.70;;;5.70;;
11211;SDS011;5663;50.864;12.096;2024-01-15T06:28:14;9.83;;;5.60;;
11211;SDS011;5663;50.864;12.096;2024-01-15T06:30:49;10.20;;;5.70;;
11211;SDS011;5663;50.864;12.096;2024-01-15T06:33:36;10.37;;;6.10;;
11211;SDS011;5663;50.864;12.096;2024-01-15T06:36:05;9.07;;;5.50;;
11211;SDS011;5663;50.864;12.096;2024-01-15T06:39:10;11.37;;;6.63;;
11211;SDS011;5663;50.864;12.096;2024-01-15T06:41:56;8.63;;;5.67;;
11211;SDS011;5663;50.864;12.096;2024-01-15T06:44:41;10.50;;;6.10;;
11211;SDS011;5663;50.864;12.096;2024-01-15T06:47:27;11.20;;;6.47;;
11211;SDS011;5663;50.864;12.096;2024-01-15T06:57:06;10.47;;;6.53;;
11211;SDS011;5663;50.864;12.096;2024-01-15T06:59:37;9.90;;;6.03;;
11211;SDS011;5663;50.864;12.096;2024-01-15T07:02:09;10.57;;;6.57;;
11211;SDS011;5663;50.864;12.096;2024-01-15T07:04:37;10.77;;;6.43;;
11211;SDS011;5663;50.864;12.096;2024-01-15T07:07:04;11.77;;;6.23;;
11211;SDS011;5663;50.864;12.096;2024-01-15T07:09:42;9.97;;;5.80;;
11211;SDS011;5663;50.864;12.096;2024-01-15T07:12:16;12.37;;;6.33;;
11211;SDS011;5663;50.864;12.096;2024-01-15T07:14:50;10.77;;;6.23;;
11211;SDS011;5663;50.864;12.096;2024-01-15T07:17:25;9.53;;;5.83;;
11211;SDS011;5663;50.864;12.096;2024-01-15T07:19:58;12.03;;;7.17;;
11211;SDS011;5663;50.864;12.096;2024-01-15T07:22:29;11.93;;;6.70;;
11211;SDS011;5663;50.864;12.096;2024-01-15T07:25:03;10.30;;;6.20;;
11211;SDS011;5663;50.864;12.096;2024-01-15T07:30:34;9.93;;;5.53;;
11211;SDS011;5663;50.864;12.096;2024-01-15T07:33:04;10.03;;;6.50;;
11211;SDS011;5663;50.864;12.096;2024-01-15T07:35:32;9.00;;;5.53;;
11211;SDS011;5663;50.864;12.096;2024-01-15T07:37:59;9.47;;;5.90;;
11211;SDS011;5663;50.864;12.096;2024-01-15T07:40:29;8.73;;;5.80;;
11211;SDS011;5663;50.864;12.096;2024-01-15T07:42:56;9.50;;;5.70;;
11211;SDS011;5663;50.864;12.096;2024-01-15T07:45:35;9.33;;;5.90;;
11211;SDS011;5663;50.864;12.096;2024-01-15T07:48:04;9.07;;;5.70;;
11211;SDS011;5663;50.864;12.096;2024-01-15T07:50:32;9.00;;;5.83;;
11211;SDS011;5663;50.864;12.096;2024-01-15T07:53:00;11.80;;;6.40;;
11211;SDS011;5663;50.864;12.096;2024-01-15T07:55:35;10.67;;;5.90;;
11211;SDS011;5663;50.864;12.096;2024-01-15T07:58:03;11.67;;;6.70;;
11211;SDS011;5663;50.864;12.096;2024-01-15T08:00:32;9.17;;;5.70;;
11211;SDS011;5663;50.864;12.096;2024-01-15T08:03:14;9.60;;;5.80;;
11211;SDS011;5663;50.864;12.096;2024-01-15T08:05:43;11.40;;;6.13;;
11211;SDS011;5663;50.864;12.096;2024-01-15T08:08:12;10.13;;;5.63;;
11211;SDS011;5663;50.864;12.096;2024-01-15T08:10:42;11.93;;;5.93;;
11211;SDS011;5663;50.864;12.096;2024-01-15T08:13:28;11.13;;;5.60;;
11211;SDS011;5663;50.864;12.096;2024-01-15T08:16:20;11.47;;;5.73;;
11211;SDS011;5663;50.864;12.096;2024-01-15T08:19:07;9.17;;;5.87;;
11211;SDS011;5663;50.864;12.096;2024-01-15T08:21:52;8.37;;;5.13;;
11211;SDS011;5663;50.864;12.096;2024-01-15T08:24:20;8.37;;;4.90;;
11211;SDS011;5663;50.864;12.096;2024-01-15T08:26:50;11.13;;;5.43;;
11211;SDS011;5663;50.864;12.096;2024-01-15T08:29:57;10.30;;;5.70;;
11211;SDS011;5663;50.864;12.096;2024-01-15T08:32:42;8.43;;;5.20;;
11211;SDS011;5663;50.864;12.096;2024-01-15T08:35:14;9.80;;;5.57;;
11211;SDS011;5663;50.864;12.096;2024-01-15T08:37:42;9.53;;;5.53;;
11211;SDS011;5663;50.864;12.096;2024-01-15T08:40:28;7.93;;;5.13;;
11211;SDS011;5663;50.864;12.096;2024-01-15T08:43:28;7.23;;;4.70;;
11211;SDS011;5663;50.864;12.096;2024-01-15T08:45:58;10.27;;;5.00;;
11211;SDS011;5663;50.864;12.096;2024-01-15T08:48:30;9.27;;;5.10;;
11211;SDS011;5663;50.864;12.096;2024-01-15T08:51:07;9.57;;;5.33;;
11211;SDS011;5663;50.864;12.096;2024-01-15T08:53:36;10.07;;;5.23;;
11211;SDS011;5663;50.864;12.096;2024-01-15T08:56:03;9.00;;;5.20;;
11211;SDS011;5663;50.864;12.096;2024-01-15T08:58:37;10.07;;;5.50;;
11211;SDS011;5663;50.864;12.096;2024-01-15T09:01:06;8.70;;;4.80;;
11211;SDS011;5663;50.864;12.096;2024-01-15T09:03:49;9.50;;;5.60;;
11211;SDS011;5663;50.864;12.096;2024-01-15T09:06:20;9.93;;;5.63;;
11211;SDS011;5663;50.864;12.096;2024-01-15T09:08:58;8.87;;;4.67;;
11211;SDS011;5663;50.864;12.096;2024-01-15T09:11:44;7.13;;;4.60;;
11211;SDS011;5663;50.864;12.096;2024-01-15T09:14:17;8.53;;;5.33;;
11211;SDS011;5663;50.864;12.096;2024-01-15T09:16:47;6.47;;;4.47;;
11211;SDS011;5663;50.864;12.096;2024-01-15T09:19:34;10.47;;;5.30;;
11211;SDS011;5663;50.864;12.096;2024-01-15T09:22:03;8.20;;;5.03;;
11211;SDS011;5663;50.864;12.096;2024-01-15T09:24:33;9.93;;;5.23;;
11211;SDS011;5663;50.864;12.096;2024-01-15T09:27:19;8.83;;;4.50;;
11211;SDS011;5663;50.864;12.096;2024-01-15T09:29:48;11.13;;;4.77;;
11211;SDS011;5663;50.864;12.096;2024-01-15T09:32:17;9.63;;;5.17;;
11211;SDS011;5663;50.864;12.096;2024-01-15T09:35:02;8.27;;;5.00;;
11211;SDS011;5663;50.864;12.096;2024-01-15T09:37:32;9.67;;;5.30;;
11211;SDS011;5663;50.864;12.096;2024-01-15T09:39:59;9.47;;;5.17;;
11211;SDS011;5663;50.864;12.096;2024-01-15T09:42:42;8.37;;;4.83;;
11211;SDS011;5663;50.864;12.096;2024-01-15T09:45:28;10.67;;;5.63;;
11211;SDS011;5663;50.864;12.096;2024-01-15T09:47:57;10.03;;;5.13;;
11211;SDS011;5663;50.864;12.096;2024-01-15T09:50:25;8.37;;;4.67;;
11211;SDS011;5663;50.864;12.096;2024-01-15T09:53:00;7.77;;;4.70;;
11211;SDS011;5663;50.864;12.096;2024-01-15T09:55:28;9.47;;;4.80;;
11211;SDS011;5663;50.864;12.096;2024-01-15T09:58:00;9.73;;;4.93;;
11211;SDS011;5663;50.864;12.096;2024-01-15T10:00:28;9.47;;;5.37;;
11211;SDS011;5663;50.864;12.096;2024-01-15T10:03:35;9.37;;;5.27;;
11211;SDS011;5663;50.864;12.096;2024-01-15T10:06:07;7.20;;;4.87;;
11211;SDS011;5663;50.864;12.096;2024-01-15T10:08:56;8.80;;;5.20;;
11211;SDS011;5663;50.864;12.096;2024-01-15T10:11:30;9.10;;;4.83;;
11211;SDS011;5663;50.864;12.096;2024-01-15T10:13:58;7.17;;;4.60;;
11211;SDS011;5663;50.864;12.096;2024-01-15T10:16:32;7.80;;;4.50;;
11211;SDS011;5663;50.864;12.096;2024-01-15T10:19:00;6.23;;;4.17;;
11211;SDS011;5663;50.864;12.096;2024-01-15T10:21:31;7.30;;;4.47;;
11211;SDS011;5663;50.864;12.096;2024-01-15T10:24:08;10.13;;;4.53;;
11211;SDS011;5663;50.864;12.096;2024-01-15T10:27:09;8.57;;;5.07;;
11211;SDS011;5663;50.864;12.096;2024-01-15T10:29:46;10.13;;;4.63;;
11211;SDS011;5663;50.864;12.096;2024-01-15T10:32:13;11.70;;;5.20;;
11211;SDS011;5663;50.864;12.096;2024-01-15T10:34:42;7.50;;;4.27;;
11211;SDS011;5663;50.864;12.096;2024-01-15T10:37:11;8.07;;;4.43;;
11211;SDS011;5663;50.864;12.096;2024-01-15T10:39:40;7.90;;;4.40;;
11211;SDS011;5663;50.864;12.096;2024-01-15T10:42:08;8.43;;;4.73;;
11211;SDS011;5663;50.864;12.096;2024-01-15T10:44:41;7.77;;;4.30;;
11211;SDS011;5663;50.864;12.096;2024-01-15T10:47:32;8.20;;;4.40;;
11211;SDS011;5663;50.864;12.096;2024-01-15T10:50:22;5.97;;;4.00;;
11211;SDS011;5663;50.864;12.096;2024-01-15T10:53:09;8.07;;;4.33;;
11211;SDS011;5663;50.864;12.096;2024-01-15T10:55:57;7.53;;;4.40;;
11211;SDS011;5663;50.864;12.096;2024-01-15T10:58:25;6.77;;;4.40;;
11211;SDS011;5663;50.864;12.096;2024-01-15T11:01:07;9.40;;;4.37;;
11211;SDS011;5663;50.864;12.096;2024-01-15T11:03:37;7.57;;;4.60;;
11211;SDS011;5663;50.864;12.096;2024-01-15T11:06:08;6.57;;;4.03;;
11211;SDS011;5663;50.864;12.096;2024-01-15T11:08:49;9.20;;;4.00;;
11211;SDS011;5663;50.864;12.096;2024-01-15T11:11:23;7.83;;;4.30;;
11211;SDS011;5663;50.864;12.096;2024-01-15T11:13:51;6.97;;;4.10;;
11211;SDS011;5663;50.864;12.096;2024-01-15T11:16:20;6.47;;;4.10;;
11211;SDS011;5663;50.864;12.096;2024-01-15T11:19:03;9.43;;;4.33;;
11211;SDS011;5663;50.864;12.096;2024-01-15T11:21:35;6.93;;;3.90;;
11211;SDS011;5663;50.864;12.096;2024-01-15T11:24:14;7.60;;;4.67;;
11211;SDS011;5663;50.864;12.096;2024-01-15T11:27:39;7.33;;;4.23;;
11211;SDS011;5663;50.864;12.096;2024-01-15T11:30:15;5.50;;;3.90;;
11211;SDS011;5663;50.864;12.096;2024-01-15T11:32:52;6.47;;;4.37;;
11211;SDS011;5663;50.864;12.096;2024-01-15T11:35:48;6.73;;;4.30;;
11211;SDS011;5663;50.864;12.096;2024-01-15T11:38:27;6.70;;;4.30;;
11211;SDS011;5663;50.864;12.096;2024-01-15T11:41:14;10.80;;;4.50;;
11211;SDS011;5663;50.864;12.096;2024-01-15T11:43:46;8.77;;;4.70;;
11211;SDS011;5663;50.864;12.096;2024-01-15T11:46:14;6.47;;;4.13;;
11211;SDS011;5663;50.864;12.096;2024-01-15T11:48:48;8.73;;;4.50;;
11211;SDS011;5663;50.864;12.096;2024-01-15T11:51:40;7.10;;;4.13;;
11211;SDS011;5663;50.864;12.096;2024-01-15T11:54:24;9.13;;;4.60;;
11211;SDS011;5663;50.864;12.096;2024-01-15T11:57:03;8.07;;;4.50;;
11211;SDS011;5663;50.864;12.096;2024-01-15T11:59:59;9.50;;;4.10;;
11211;SDS011;5663;50.864;12.096;2024-01-15T12:02:32;8.67;;;4.43;;
11211;SDS011;5663;50.864;12.096;2024-01-15T12:05:19;8.90;;;4.67;;
11211;SDS011;5663;50.864;12.096;2024-01-15T12:07:47;8.50;;;4.10;;
11211;SDS011;5663;50.864;12.096;2024-01-15T12:13:42;8.17;;;4.50;;
11211;SDS011;5663;50.864;12.096;2024-01-15T12:16:15;9.17;;;4.73;;
11211;SDS011;5663;50.864;12.096;2024-01-15T12:18:43;6.53;;;3.93;;
11211;SDS011;5663;50.864;12.096;2024-01-15T12:21:30;7.00;;;4.17;;
11211;SDS011;5663;50.864;12.096;2024-01-15T12:24:01;7.77;;;3.70;;
11211;SDS011;5663;50.864;12.096;2024-01-15T12:26:45;5.80;;;3.90;;
11211;SDS011;5663;50.864;12.096;2024-01-15T12:29:25;8.03;;;4.07;;
11211;SDS011;5663;50.864;12.096;2024-01-15T12:31:55;7.27;;;4.27;;
11211;SDS011;5663;50.864;12.096;2024-01-15T12:34:28;6.00;;;3.73;;
11211;SDS011;5663;50.864;12.096;2024-01-15T12:36:57;6.77;;;3.93;;
11211;SDS011;5663;50.864;12.096;2024-01-15T12:39:38;7.63;;;3.70;;
11211;SDS011;5663;50.864;12.096;2024-01-15T12:42:09;6.67;;;3.57;;
11211;SDS011;5663;50.864;12.096;2024-01-15T12:44:43;7.13;;;3.40;;
11211;SDS011;5663;50.864;12.096;2024-01-15T12:47:14;6.30;;;3.10;;
11211;SDS011;5663;50.864;12.096;2024-01-15T12:49:46;5.80;;;3.10;;
11211;SDS011;5663;50.864;12.096;2024-01-15T12:52:13;5.07;;;3.00;;
11211;SDS011;5663;50.864;12.096;2024-01-15T12:54:41;5.40;;;3.43;;
11211;SDS011;5663;50.864;12.096;2024-01-15T12:57:17;5.87;;;3.27;;
11211;SDS011;5663;50.864;12.096;2024-01-15T12:59:59;8.53;;;3.50;;
11211;SDS011;5663;50.864;12.096;2024-01-15T13:02:29;5.23;;;3.00;;
11211;SDS011;5663;50.864;12.096;2024-01-15T13:05:03;6.33;;;3.23;;
11211;SDS011;5663;50.864;12.096;2024-01-15T13:07:31;5.40;;;3.20;;
11211;SDS011;5663;50.864;12.096;2024-01-15T13:10:00;6.23;;;3.50;;
11211;SDS011;5663;50.864;12.096;2024-01-15T13:12:33;4.83;;;3.03;;
11211;SDS011;5663;50.864;12.096;2024-01-15T13:15:00;5.00;;;3.10;;
11211;SDS011;5663;50.864;12.096;2024-01-15T13:17:34;5.33;;;3.23;;
11211;SDS011;5663;50.864;12.096;2024-01-15T13:20:03;5.53;;;3.40;;
11211;SDS011;5663;50.864;12.096;2024-01-15T13:22:32;4.60;;;3.33;;
11211;SDS011;5663;50.864;12.096;2024-01-15T13:25:04;5.80;;;3.33;;
11211;SDS011;5663;50.864;12.096;2024-01-15T13:27:34;5.70;;;3.60;;
11211;SDS011;5663;50.864;12.096;2024-01-15T13:30:12;6.60;;;4.20;;
11211;SDS011;5663;50.864;12.096;2024-01-15T13:33:02;5.47;;;3.43;;
11211;SDS011;5663;50.864;12.096;2024-01-15T13:35:32;4.37;;;3.20;;
11211;SDS011;5663;50.864;12.096;2024-01-15T13:38:02;6.33;;;3.93;;
11211;SDS011;5663;50.864;12.096;2024-01-15T13:40:34;6.87;;;4.10;;
11211;SDS011;5663;50.864;12.096;2024-01-15T13:43:19;6.03;;;3.93;;
11211;SDS011;5663;50.864;12.096;2024-01-15T13:46:23;8.77;;;4.00;;
11211;SDS011;5663;50.864;12.096;2024-01-15T13:49:11;7.03;;;4.10;;
11211;SDS011;5663;50.864;12.096;2024-01-15T13:51:59;6.67;;;4.20;;
11211;SDS011;5663;50.864;12.096;2024-01-15T13:54:34;7.40;;;4.10;;
11211;SDS011;5663;50.864;12.096;2024-01-15T13:57:04;9.10;;;3.97;;
11211;SDS011;5663;50.864;12.096;2024-01-15T13:59:50;7.00;;;4.33;;
11211;SDS011;5663;50.864;12.096;2024-01-15T14:02:35;7.30;;;4.33;;
11211;SDS011;5663;50.864;12.096;2024-01-15T14:05:06;7.87;;;3.93;;
11211;SDS011;5663;50.864;12.096;2024-01-15T14:07:39;6.57;;;4.20;;
11211;SDS011;5663;50.864;12.096;2024-01-15T14:10:25;8.63;;;3.87;;
11211;SDS011;5663;50.864;12.096;2024-01-15T14:12:53;7.33;;;4.30;;
11211;SDS011;5663;50.864;12.096;2024-01-15T14:15:20;6.47;;;3.90;;
11211;SDS011;5663;50.864;12.096;2024-01-15T14:17:49;6.73;;;4.27;;
11211;SDS011;5663;50.864;12.096;2024-01-15T14:20:18;6.17;;;4.17;;
11211;SDS011;5663;50.864;12.096;2024-01-15T14:22:46;5.77;;;3.97;;
11211;SDS011;5663;50.864;12.096;2024-01-15T14:25:20;5.50;;;3.37;;
11211;SDS011;5663;50.864;12.096;2024-01-15T14:27:48;7.57;;;4.43;;
11211;SDS011;5663;50.864;12.096;2024-01-15T14:30:31;7.87;;;4.50;;
11211;SDS011;5663;50.864;12.096;2024-01-15T14:32:58;7.13;;;4.33;;
11211;SDS011;5663;50.864;12.096;2024-01-15T14:35:28;8.30;;;4.40;;
11211;SDS011;5663;50.864;12.096;2024-01-15T14:37:56;7.00;;;4.27;;
11211;SDS011;5663;50.864;12.096;2024-01-15T14:40:25;6.87;;;4.47;;
11211;SDS011;5663;50.864;12.096;2024-01-15T14:42:52;8.23;;;4.93;;
11211;SDS011;5663;50.864;12.096;2024-01-15T14:45:20;7.50;;;4.40;;
11211;SDS011;5663;50.864;12.096;2024-01-15T14:47:48;7.13;;;4.90;;
11211;SDS011;5663;50.864;12.096;2024-01-15T14:50:17;7.30;;;4.60;;
11211;SDS011;5663;50.864;12.096;2024-01-15T14:52:49;6.67;;;4.90;;
11211;SDS011;5663;50.864;12.096;2024-01-15T14:55:18;6.33;;;4.03;;
11211;SDS011;5663;50.864;12.096;2024-01-15T14:57:46;8.07;;;4.87;;
11211;SDS011;5663;50.864;12.096;2024-01-15T15:00:13;7.27;;;4.97;;
11211;SDS011;5663;50.864;12.096;2024-01-15T15:02:48;8.07;;;5.20;;
11211;SDS011;5663;50.864;12.096;2024-01-15T15:05:19;8.00;;;4.70;;
11211;SDS011;5663;50.864;12.096;2024-01-15T15:07:52;7.40;;;4.80;;
11211;SDS011;5663;50.864;12.096;2024-01-15T15:10:26;7.17;;;4.30;;
11211;SDS011;5663;50.864;12.096;2024-01-15T15:12:56;6.87;;;5.17;;
11211;SDS011;5663;50.864;12.096;2024-01-15T15:15:31;7.17;;;4.50;;
11211;SDS011;5663;50.864;12.096;2024-01-15T15:17:59;6.50;;;4.37;;
11211;SDS011;5663;50.864;12.096;2024-01-15T15:20:44;6.93;;;4.97;;
11211;SDS011;5663;50.864;12.096;2024-01-15T15:23:20;6.57;;;4.43;;
11211;SDS011;5663;50.864;12.096;2024-01-15T15:25:47;8.30;;;5.37;;
11211;SDS011;5663;50.864;12.096;2024-01-15T15:28:19;8.00;;;5.07;;
11211;SDS011;5663;50.864;12.096;2024-01-15T15:30:46;6.37;;;4.43;;
11211;SDS011;5663;50.864;12.096;2024-01-15T15:33:15;7.17;;;4.87;;
11211;SDS011;5663;50.864;12.096;2024-01-15T15:35:54;7.50;;;4.80;;
11211;SDS011;5663;50.864;12.096;2024-01-15T15:38:41;7.40;;;4.87;;
11211;SDS011;5663;50.864;12.096;2024-01-15T15:41:09;8.87;;;4.97;;